sensor_id;sensor_type;location;lat;lon;timestamp;temperature;humidity
56123;DHT22;42426;46.104;19.656;2023-07-13T00:02:15;691.20;1920.00
56123;DHT22;42426;46.104;19.656;2023-07-13T00:04:41;691.20;1920.00
56123;DHT22;42426;46.104;19.656;2023-07-13T00:07:08;691.30;1920.00
56123;DHT22;42426;46.104;19.656;2023-07-13T00:09:34;691.20;1920.00
56123;DHT22;42426;46.104;19.656;2023-07-13T00:12:01;691.20;1920.00
56123;DHT22;42426;46.104;19.656;2023-07-13T00:14:28;691.20;1920.00
56123;DHT22;42426;46.104;19.656;2023-07-13T00:16:55;691.30;1945.60
56123;DHT22;42426;46.104;19.656;2023-07-13T00:19:21;691.20;1920.00
56123;DHT22;42426;46.104;19.656;2023-07-13T00:24:16;691.60;1894.40
56123;DHT22;42426;46.104;19.656;2023-07-13T00:26:47;691.30;1894.40
56123;DHT22;42426;46.104;19.656;2023-07-13T00:29:13;691.30;1894.40
56123;DHT22;42426;46.104;19.656;2023-07-13T00:31:41;691.30;1920.00
56123;DHT22;42426;46.104;19.656;2023-07-13T01:28:24;666.50;1920.00
56123;DHT22;42426;46.104;19.656;2023-07-13T01:30:53;666.40;1945.60
56123;DHT22;42426;46.104;19.656;2023-07-13T01:33:19;666.00;1945.60
56123;DHT22;42426;46.104;19.656;2023-07-13T01:35:46;666.20;1945.60
56123;DHT22;42426;46.104;19.656;2023-07-13T01:38:14;666.20;1945.60
56123;DHT22;42426;46.104;19.656;2023-07-13T01:40:41;666.20;1945.60
56123;DHT22;42426;46.104;19.656;2023-07-13T01:43:06;666.10;1945.60
56123;DHT22;42426;46.104;19.656;2023-07-13T03:20:49;665.60;2048.00
56123;DHT22;42426;46.104;19.656;2023-07-13T03:23:15;640.60;2022.40
56123;DHT22;42426;46.104;19.656;2023-07-13T03:25:41;640.60;2022.40
56123;DHT22;42426;46.104;19.656;2023-07-13T03:28:07;665.60;2048.00
56123;DHT22;42426;46.104;19.656;2023-07-13T03:30:32;640.80;2022.40
56123;DHT22;42426;46.104;19.656;2023-07-13T03:32:58;640.90;2022.40
56123;DHT22;42426;46.104;19.656;2023-07-13T03:35:24;640.70;2048.00
56123;DHT22;42426;46.104;19.656;2023-07-13T03:37:49;640.90;2048.00
56123;DHT22;42426;46.104;19.656;2023-07-13T03:40:17;640.70;2048.00
56123;DHT22;42426;46.104;19.656;2023-07-13T03:42:42;640.70;2048.00
56123;DHT22;42426;46.104;19.656;2023-07-13T03:45:08;640.80;2048.00
56123;DHT22;42426;46.104;19.656;2023-07-13T03:47:34;640.90;2048.00
56123;DHT22;42426;46.104;19.656;2023-07-13T03:50:00;640.70;2073.60
56123;DHT22;42426;46.104;19.656;2023-07-13T03:52:25;640.80;2073.60
56123;DHT22;42426;46.104;19.656;2023-07-13T05:00:47;666.00;2124.80
56123;DHT22;42426;46.104;19.656;2023-07-13T05:03:13;665.90;2124.80
56123;DHT22;42426;46.104;19.656;2023-07-13T05:05:38;665.80;2176.00
56123;DHT22;42426;46.104;19.656;2023-07-13T05:34:57;666.30;2099.20
56123;DHT22;42426;46.104;19.656;2023-07-13T05:37:23;666.20;2099.20
56123;DHT22;42426;46.104;19.656;2023-07-13T05:39:49;666.20;2099.20
56123;DHT22;42426;46.104;19.656;2023-07-13T05:42:14;666.30;2073.60
56123;DHT22;42426;46.104;19.656;2023-07-13T05:44:40;666.20;2073.60
56123;DHT22;42426;46.104;19.656;2023-07-13T05:47:06;666.10;2073.60
56123;DHT22;42426;46.104;19.656;2023-07-13T05:49:32;666.10;2073.60
56123;DHT22;42426;46.104;19.656;2023-07-13T05:51:57;666.10;2073.60
56123;DHT22;42426;46.104;19.656;2023-07-13T05:54:23;666.00;2048.00
56123;DHT22;42426;46.104;19.656;2023-07-13T05:56:49;665.90;2048.00
56123;DHT22;42426;46.104;19.656;2023-07-13T05:59:15;665.70;2048.00
56123;DHT22;42426;46.104;19.656;2023-07-13T06:01:41;640.90;2073.60
56123;DHT22;42426;46.104;19.656;2023-07-13T06:04:07;640.90;2073.60
56123;DHT22;42426;46.104;19.656;2023-07-13T06:06:33;640.80;2073.60
56123;DHT22;42426;46.104;19.656;2023-07-13T06:08:59;640.90;2073.60
56123;DHT22;42426;46.104;19.656;2023-07-13T06:11:26;665.70;2073.60
56123;DHT22;42426;46.104;19.656;2023-07-13T06:13:53;665.60;2073.60
56123;DHT22;42426;46.104;19.656;2023-07-13T06:16:19;665.70;2073.60
56123;DHT22;42426;46.104;19.656;2023-07-13T06:18:45;640.90;2073.60
56123;DHT22;42426;46.104;19.656;2023-07-13T06:21:19;640.90;2073.60
56123;DHT22;42426;46.104;19.656;2023-07-13T06:23:47;640.80;2099.20
56123;DHT22;42426;46.104;19.656;2023-07-13T06:26:17;640.90;2099.20
56123;DHT22;42426;46.104;19.656;2023-07-13T06:28:43;640.90;2073.60
56123;DHT22;42426;46.104;19.656;2023-07-13T06:31:11;665.60;2099.20
56123;DHT22;42426;46.104;19.656;2023-07-13T06:33:37;665.60;2124.80
56123;DHT22;42426;46.104;19.656;2023-07-13T06:36:04;665.60;2124.80
56123;DHT22;42426;46.104;19.656;2023-07-13T06:38:31;665.70;2124.80
56123;DHT22;42426;46.104;19.656;2023-07-13T06:40:57;665.90;2073.60
56123;DHT22;42426;46.104;19.656;2023-07-13T06:43:23;665.60;2073.60
56123;DHT22;42426;46.104;19.656;2023-07-13T06:45:56;665.90;2099.20
56123;DHT22;42426;46.104;19.656;2023-07-13T06:48:21;666.00;2099.20
56123;DHT22;42426;46.104;19.656;2023-07-13T06:50:48;666.10;2099.20
56123;DHT22;42426;46.104;19.656;2023-07-13T06:53:15;666.10;2073.60
56123;DHT22;42426;46.104;19.656;2023-07-13T06:55:43;666.00;2099.20
56123;DHT22;42426;46.104;19.656;2023-07-13T06:58:09;666.00;2099.20
56123;DHT22;42426;46.104;19.656;2023-07-13T07:00:35;666.00;2073.60
56123;DHT22;42426;46.104;19.656;2023-07-13T07:03:01;666.10;2073.60
56123;DHT22;42426;46.104;19.656;2023-07-13T07:05:26;666.10;2073.60
56123;DHT22;42426;46.104;19.656;2023-07-13T07:07:54;666.10;2073.60
56123;DHT22;42426;46.104;19.656;2023-07-13T07:10:21;666.20;2048.00
56123;DHT22;42426;46.104;19.656;2023-07-13T07:12:47;666.20;2073.60
56123;DHT22;42426;46.104;19.656;2023-07-13T07:15:14;666.40;2022.40
56123;DHT22;42426;46.104;19.656;2023-07-13T07:17:40;666.40;2022.40
56123;DHT22;42426;46.104;19.656;2023-07-13T07:20:07;666.40;2022.40
56123;DHT22;42426;46.104;19.656;2023-07-13T07:22:33;666.30;2022.40
56123;DHT22;42426;46.104;19.656;2023-07-13T07:24:59;666.40;2022.40
56123;DHT22;42426;46.104;19.656;2023-07-13T07:27:25;666.40;1996.80
56123;DHT22;42426;46.104;19.656;2023-07-13T07:29:53;666.50;1996.80
56123;DHT22;42426;46.104;19.656;2023-07-13T07:32:19;691.20;1996.80
56123;DHT22;42426;46.104;19.656;2023-07-13T07:34:46;691.30;1971.20
56123;DHT22;42426;46.104;19.656;2023-07-13T07:37:13;691.30;1971.20
56123;DHT22;42426;46.104;19.656;2023-07-13T07:39:39;691.50;1971.20
56123;DHT22;42426;46.104;19.656;2023-07-13T07:42:05;691.30;1971.20
56123;DHT22;42426;46.104;19.656;2023-07-13T07:44:32;691.20;1971.20
56123;DHT22;42426;46.104;19.656;2023-07-13T07:46:58;691.30;1971.20
56123;DHT22;42426;46.104;19.656;2023-07-13T07:49:24;691.30;1971.20
56123;DHT22;42426;46.104;19.656;2023-07-13T07:51:50;691.50;1971.20
56123;DHT22;42426;46.104;19.656;2023-07-13T07:54:16;691.50;1971.20
56123;DHT22;42426;46.104;19.656;2023-07-13T07:56:42;691.50;1971.20
56123;DHT22;42426;46.104;19.656;2023-07-13T07:59:08;691.60;1971.20
56123;DHT22;42426;46.104;19.656;2023-07-13T08:01:33;691.60;1971.20
56123;DHT22;42426;46.104;19.656;2023-07-13T08:03:59;691.60;1945.60
56123;DHT22;42426;46.104;19.656;2023-07-13T08:06:25;691.60;1996.80
56123;DHT22;42426;46.104;19.656;2023-07-13T08:08:51;691.60;1971.20
56123;DHT22;42426;46.104;19.656;2023-07-13T08:11:17;691.70;1971.20
56123;DHT22;42426;46.104;19.656;2023-07-13T08:13:43;691.80;1996.80
56123;DHT22;42426;46.104;19.656;2023-07-13T08:16:08;691.80;1945.60
56123;DHT22;42426;46.104;19.656;2023-07-13T08:18:34;691.80;1945.60
56123;DHT22;42426;46.104;19.656;2023-07-13T08:21:04;691.90;1945.60
56123;DHT22;42426;46.104;19.656;2023-07-13T08:23:31;691.90;1920.00
56123;DHT22;42426;46.104;19.656;2023-07-13T08:25:57;691.90;1894.40
56123;DHT22;42426;46.104;19.656;2023-07-13T08:28:24;692.00;1894.40
56123;DHT22;42426;46.104;19.656;2023-07-13T08:33:20;716.90;1920.00
56123;DHT22;42426;46.104;19.656;2023-07-13T08:56:04;717.50;1817.60
56123;DHT22;42426;46.104;19.656;2023-07-13T08:58:33;717.20;1843.20
56123;DHT22;42426;46.104;19.656;2023-07-13T09:01:10;717.20;1817.60
56123;DHT22;42426;46.104;19.656;2023-07-13T09:03:56;717.30;1843.20
56123;DHT22;42426;46.104;19.656;2023-07-13T09:06:30;717.40;1792.00
56123;DHT22;42426;46.104;19.656;2023-07-13T09:09:05;717.40;1740.80
56123;DHT22;42426;46.104;19.656;2023-07-13T09:14:12;717.50;1766.40
56123;DHT22;42426;46.104;19.656;2023-07-13T09:16:41;717.60;1792.00
56123;DHT22;42426;46.104;19.656;2023-07-13T09:19:11;717.60;1766.40
56123;DHT22;42426;46.104;19.656;2023-07-13T09:21:41;717.70;1766.40
56123;DHT22;42426;46.104;19.656;2023-07-13T10:37:44;793.70;1561.60
56123;DHT22;42426;46.104;19.656;2023-07-13T10:40:24;768.80;1561.60
56123;DHT22;42426;46.104;19.656;2023-07-13T10:42:53;768.80;1561.60
56123;DHT22;42426;46.104;19.656;2023-07-13T10:45:21;768.80;1561.60
56123;DHT22;42426;46.104;19.656;2023-07-13T10:47:50;768.80;1561.60
56123;DHT22;42426;46.104;19.656;2023-07-13T11:08:19;794.00;1561.60
56123;DHT22;42426;46.104;19.656;2023-07-13T11:10:53;794.00;1561.60
56123;DHT22;42426;46.104;19.656;2023-07-13T12:47:50;819.90;1484.80
56123;DHT22;42426;46.104;19.656;2023-07-13T12:50:21;819.70;1510.40
56123;DHT22;42426;46.104;19.656;2023-07-13T16:05:44;896.10;1254.40
56123;DHT22;42426;46.104;19.656;2023-07-13T16:08:37;870.90;1254.40
56123;DHT22;42426;46.104;19.656;2023-07-13T16:11:12;870.70;1280.00
56123;DHT22;42426;46.104;19.656;2023-07-13T16:13:42;870.70;1280.00
56123;DHT22;42426;46.104;19.656;2023-07-13T16:16:11;870.70;1280.00
56123;DHT22;42426;46.104;19.656;2023-07-13T16:18:38;870.70;1254.40
56123;DHT22;42426;46.104;19.656;2023-07-13T16:21:13;870.70;1280.00
56123;DHT22;42426;46.104;19.656;2023-07-13T16:23:41;870.40;1280.00
56123;DHT22;42426;46.104;19.656;2023-07-13T16:28:48;845.30;1280.00
56123;DHT22;42426;46.104;19.656;2023-07-13T16:31:13;845.20;1305.60
56123;DHT22;42426;46.104;19.656;2023-07-13T16:33:40;844.80;1356.80
56123;DHT22;42426;46.104;19.656;2023-07-13T16:36:12;820.00;1356.80
56123;DHT22;42426;46.104;19.656;2023-07-13T16:38:38;819.60;1382.40
56123;DHT22;42426;46.104;19.656;2023-07-13T16:43:35;819.20;1433.60
56123;DHT22;42426;46.104;19.656;2023-07-13T16:46:00;819.20;1484.80
56123;DHT22;42426;46.104;19.656;2023-07-13T16:48:29;794.10;1433.60
56123;DHT22;42426;46.104;19.656;2023-07-13T16:56:02;793.90;1484.80
56123;DHT22;42426;46.104;19.656;2023-07-13T16:58:31;793.60;1510.40
56123;DHT22;42426;46.104;19.656;2023-07-13T17:00:59;768.80;1510.40
56123;DHT22;42426;46.104;19.656;2023-07-13T17:03:27;768.50;1510.40
56123;DHT22;42426;46.104;19.656;2023-07-13T17:08:22;768.60;1510.40
56123;DHT22;42426;46.104;19.656;2023-07-13T17:10:50;768.50;1510.40
56123;DHT22;42426;46.104;19.656;2023-07-13T17:13:18;768.10;1536.00
56123;DHT22;42426;46.104;19.656;2023-07-13T18:00:08;743.20;1587.20
56123;DHT22;42426;46.104;19.656;2023-07-13T18:02:54;742.90;1587.20
56123;DHT22;42426;46.104;19.656;2023-07-13T18:05:22;743.00;1561.60
56123;DHT22;42426;46.104;19.656;2023-07-13T18:07:51;742.80;1561.60
56123;DHT22;42426;46.104;19.656;2023-07-13T18:10:19;742.90;1561.60
56123;DHT22;42426;46.104;19.656;2023-07-13T18:12:52;742.50;1561.60
56123;DHT22;42426;46.104;19.656;2023-07-13T18:15:24;717.70;1536.00
56123;DHT22;42426;46.104;19.656;2023-07-13T18:17:50;742.40;1561.60
56123;DHT22;42426;46.104;19.656;2023-07-13T18:20:23;717.60;1536.00
56123;DHT22;42426;46.104;19.656;2023-07-13T18:22:50;717.40;1536.00
56123;DHT22;42426;46.104;19.656;2023-07-13T18:25:21;717.40;1536.00
56123;DHT22;42426;46.104;19.656;2023-07-13T18:27:48;717.30;1561.60
56123;DHT22;42426;46.104;19.656;2023-07-13T18:30:18;717.30;1561.60
56123;DHT22;42426;46.104;19.656;2023-07-13T18:32:49;717.20;1561.60
56123;DHT22;42426;46.104;19.656;2023-07-13T18:35:18;717.10;1587.20
56123;DHT22;42426;46.104;19.656;2023-07-13T18:37:45;717.10;1612.80
56123;DHT22;42426;46.104;19.656;2023-07-13T18:40:16;717.00;1612.80
56123;DHT22;42426;46.104;19.656;2023-07-13T18:42:46;716.90;1638.40
56123;DHT22;42426;46.104;19.656;2023-07-13T19:54:15;691.50;1664.00
56123;DHT22;42426;46.104;19.656;2023-07-13T19:56:44;691.30;1664.00
56123;DHT22;42426;46.104;19.656;2023-07-13T20:48:48;691.40;1945.60
56123;DHT22;42426;46.104;19.656;2023-07-13T20:51:17;691.30;1920.00
56123;DHT22;42426;46.104;19.656;2023-07-13T20:53:44;666.50;1920.00
56123;DHT22;42426;46.104;19.656;2023-07-13T21:13:36;666.20;2022.40
56123;DHT22;42426;46.104;19.656;2023-07-13T22:25:22;589.50;2432.00
